Time;durP1;ratioP1;P1;durP2;ratioP2;P2;SDS_P1;SDS_P2;PMS_P1;PMS_P2;Temp;Humidity;BMP_temperature;BMP_pressure;BME280_temperature;BME280_humidity;BME280_pressure;Samples;Min_cycle;Max_cycle;Signal;HPM_P1;HPM_P2
2022/04/15 00:02:24;;;;;;;18.15;8.63;;;10.70;99.90;;;;;;5094635;28;20032;-43
2022/04/15 00:04:50;;;;;;;19.35;8.35;;;10.60;99.90;;;;;;5094906;28;20027;-39
2022/04/15 00:07:15;;;;;;;16.15;8.55;;;10.60;99.90;;;;;;5094991;28;20024;-39
2022/04/15 00:09:41;;;;;;;13.35;8.02;;;10.60;99.90;;;;;;5093855;28;20484;-39
2022/04/15 00:12:10;;;;;;;17.20;8.07;;;10.60;99.90;;;;;;5092999;28;20039;-38
2022/04/15 00:14:36;;;;;;;15.52;8.13;;;10.60;99.90;;;;;;5107802;28;20525;-39
2022/04/15 00:17:02;;;;;;;13.25;7.75;;;10.50;99.90;;;;;;5092628;28;20021;-38
2022/04/15 00:19:27;;;;;;;15.85;7.78;;;10.50;99.90;;;;;;5095278;28;20032;-39
2022/04/15 00:21:53;;;;;;;12.32;6.70;;;10.40;99.90;;;;;;5095081;28;20055;-39
2022/04/15 00:24:18;;;;;;;19.08;9.07;;;10.40;99.90;;;;;;5094445;28;20020;-38
2022/04/15 00:26:45;;;;;;;16.08;8.02;;;10.50;99.90;;;;;;5093262;28;20127;-39
2022/04/15 00:29:10;;;;;;;18.30;8.25;;;10.50;99.90;;;;;;5095016;28;20020;-39
2022/04/15 00:31:36;;;;;;;16.98;8.10;;;10.50;99.90;;;;;;5093073;28;20032;-38
2022/04/15 00:34:03;;;;;;;17.58;8.32;;;10.40;99.90;;;;;;5091777;28;20101;-39
2022/04/15 00:36:28;;;;;;;19.05;8.65;;;10.40;99.90;;;;;;5094217;28;20133;-37
2022/04/15 00:38:54;;;;;;;19.88;8.85;;;10.30;99.90;;;;;;5092476;28;20085;-38
2022/04/15 00:41:20;;;;;;;18.25;9.40;;;10.30;99.90;;;;;;5094736;28;20399;-39
2022/04/15 00:43:45;;;;;;;18.83;8.52;;;10.30;99.90;;;;;;5094713;28;20013;-39
2022/04/15 00:46:11;;;;;;;16.73;9.65;;;10.20;99.90;;;;;;5087689;28;20036;-39
2022/04/15 00:48:37;;;;;;;21.75;9.07;;;10.20;99.90;;;;;;5093308;28;20533;-37
2022/04/15 00:51:04;;;;;;;21.00;10.00;;;10.10;99.90;;;;;;5092652;28;20483;-40
2022/04/15 00:53:31;;;;;;;20.40;9.67;;;10.20;99.90;;;;;;5094705;28;20030;-38
2022/04/15 00:56:05;;;;;;;17.77;8.88;;;10.10;99.90;;;;;;5104271;28;20447;-37
2022/04/15 00:58:35;;;;;;;13.80;7.95;;;10.20;99.90;;;;;;5091166;28;20519;-37
2022/04/15 01:01:01;;;;;;;14.93;8.05;;;10.10;99.90;;;;;;5089701;28;20036;-36
2022/04/15 01:03:28;;;;;;;14.95;8.38;;;10.00;99.90;;;;;;5080582;28;20461;-38
2022/04/15 01:05:58;;;;;;;16.35;7.88;;;10.00;99.90;;;;;;5094301;28;20090;-37
2022/04/15 01:08:27;;;;;;;18.27;9.32;;;10.00;99.90;;;;;;5093574;28;20051;-37
2022/04/15 01:10:56;;;;;;;20.30;7.88;;;9.80;99.90;;;;;;5089354;28;20062;-44
2022/04/15 01:13:23;;;;;;;12.65;7.47;;;9.80;99.90;;;;;;5094358;28;20062;-37
2022/04/15 01:15:52;;;;;;;15.38;7.50;;;9.80;99.90;;;;;;5093405;28;20416;-38
2022/04/15 01:18:17;;;;;;;10.85;7.40;;;9.70;99.90;;;;;;5092379;28;20099;-38
2022/04/15 01:20:46;;;;;;;12.50;7.53;;;9.70;99.90;;;;;;5093985;28;20111;-38
2022/04/15 01:23:12;;;;;;;10.02;6.80;;;9.70;99.90;;;;;;5093979;28;20031;-38
2022/04/15 01:25:38;;;;;;;14.48;7.30;;;9.70;99.90;;;;;;5093854;28;20044;-38
2022/04/15 01:28:04;;;;;;;11.18;7.03;;;9.80;99.90;;;;;;5085456;28;20023;-41
2022/04/15 01:30:30;;;;;;;15.40;6.90;;;9.80;99.90;;;;;;5092066;28;20111;-37
2022/04/15 01:32:56;;;;;;;12.75;6.60;;;9.80;99.90;;;;;;5093809;28;20020;-37
2022/04/15 01:35:22;;;;;;;13.50;6.70;;;9.80;99.90;;;;;;5093799;28;20504;-39
2022/04/15 01:37:49;;;;;;;11.05;6.82;;;9.80;99.90;;;;;;5093233;28;20027;-41
2022/04/15 01:40:16;;;;;;;13.70;7.60;;;9.80;99.90;;;;;;5092471;28;20157;-38
2022/04/15 01:42:44;;;;;;;17.17;6.90;;;9.80;99.90;;;;;;5092409;28;20027;-38
2022/04/15 01:45:10;;;;;;;10.27;7.07;;;9.80;99.90;;;;;;5091241;28;20484;-38
2022/04/15 01:47:36;;;;;;;11.73;6.82;;;9.90;99.90;;;;;;5092863;28;20085;-39
2022/04/15 01:50:04;;;;;;;11.52;6.35;;;10.00;99.90;;;;;;5093693;28;20099;-38
2022/04/15 01:52:29;;;;;;;10.40;6.33;;;10.00;99.90;;;;;;5093547;28;20020;-34
2022/04/15 01:54:56;;;;;;;15.05;6.35;;;10.10;99.90;;;;;;5090915;28;20089;-37
2022/04/15 01:57:21;;;;;;;12.45;5.72;;;10.10;99.90;;;;;;5091091;28;20032;-37
2022/04/15 01:59:47;;;;;;;11.18;5.97;;;10.10;99.90;;;;;;5090887;28;20430;-38
2022/04/15 02:02:13;;;;;;;7.50;5.32;;;10.20;99.90;;;;;;5092680;28;20036;-38
2022/04/15 02:04:39;;;;;;;14.15;6.43;;;10.10;99.90;;;;;;5091554;28;20021;-38
2022/04/15 02:07:05;;;;;;;14.00;7.03;;;10.20;99.90;;;;;;5092188;28;20075;-38
2022/04/15 02:09:31;;;;;;;10.55;6.40;;;10.20;99.90;;;;;;5090054;28;20028;-38
2022/04/15 02:11:57;;;;;;;16.10;5.72;;;10.10;99.90;;;;;;5092660;28;20032;-36
2022/04/15 02:14:23;;;;;;;11.02;5.80;;;10.10;99.90;;;;;;5093383;28;20533;-38
2022/04/15 02:16:53;;;;;;;13.68;5.15;;;10.20;99.90;;;;;;5091195;28;20016;-36
2022/04/15 02:19:20;;;;;;;8.52;4.72;;;10.20;99.90;;;;;;5092191;28;20035;-37
2022/04/15 02:21:46;;;;;;;9.80;5.13;;;10.20;99.90;;;;;;5085703;28;20035;-40
2022/04/15 02:24:12;;;;;;;12.18;5.90;;;10.20;99.90;;;;;;5085266;28;20035;-46
2022/04/15 02:26:38;;;;;;;11.15;5.07;;;10.30;99.90;;;;;;5092376;28;20033;-40
2022/04/15 02:29:04;;;;;;;13.38;4.32;;;10.30;99.90;;;;;;5092155;28;20407;-37
2022/04/15 02:31:29;;;;;;;10.60;4.82;;;10.30;99.90;;;;;;5091777;28;20511;-39
2022/04/15 02:33:55;;;;;;;8.77;4.22;;;10.30;99.90;;;;;;5092548;28;20035;-39
2022/04/15 02:36:20;;;;;;;14.48;4.50;;;10.30;99.90;;;;;;5090779;28;20030;-39
2022/04/15 02:38:46;;;;;;;11.70;4.55;;;10.30;99.90;;;;;;5090471;28;20046;-39
2022/04/15 02:41:13;;;;;;;14.32;5.00;;;10.30;99.90;;;;;;5089886;28;20062;-38
2022/04/15 02:43:39;;;;;;;5.50;3.67;;;10.30;99.90;;;;;;5090862;28;20024;-40
2022/04/15 02:46:07;;;;;;;8.80;3.90;;;10.20;99.90;;;;;;5092969;28;20418;-40
2022/04/15 02:48:33;;;;;;;11.32;4.15;;;10.20;99.90;;;;;;5091680;28;20468;-38
2022/04/15 02:51:00;;;;;;;10.73;4.90;;;10.20;99.90;;;;;;5092953;28;20074;-36
2022/04/15 02:53:27;;;;;;;9.75;4.10;;;10.20;99.90;;;;;;5092524;28;20024;-38
2022/04/15 02:55:53;;;;;;;11.32;4.57;;;10.20;99.90;;;;;;5091580;28;20395;-38
2022/04/15 02:58:19;;;;;;;5.65;4.18;;;10.20;99.90;;;;;;5091899;28;20028;-41
2022/04/15 03:00:46;;;;;;;8.85;4.20;;;10.20;99.90;;;;;;5073336;28;20039;-38
2022/04/15 03:03:11;;;;;;;9.13;3.95;;;10.30;99.90;;;;;;5090904;28;20111;-39
2022/04/15 03:05:38;;;;;;;4.68;3.60;;;10.30;99.90;;;;;;5091992;28;20051;-39
2022/04/15 03:08:04;;;;;;;5.57;3.65;;;10.30;99.90;;;;;;5087997;28;20494;-47
2022/04/15 03:10:33;;;;;;;4.75;3.60;;;10.30;99.90;;;;;;5082483;28;20024;-40
2022/04/15 03:12:59;;;;;;;9.73;4.45;;;10.30;99.90;;;;;;5091835;28;20114;-37
2022/04/15 03:15:24;;;;;;;5.45;3.88;;;10.40;99.90;;;;;;5091425;28;20012;-38
2022/04/15 03:17:50;;;;;;;11.32;3.95;;;10.40;99.90;;;;;;5090659;28;20145;-36
2022/04/15 03:20:15;;;;;;;9.23;4.43;;;10.40;99.90;;;;;;5072333;28;20103;-39
2022/04/15 03:22:43;;;;;;;11.40;4.25;;;10.40;99.90;;;;;;5083085;28;20506;-42
2022/04/15 03:25:14;;;;;;;14.63;4.00;;;10.30;99.90;;;;;;5096091;28;20503;-39
2022/04/15 03:27:40;;;;;;;7.68;3.88;;;10.40;99.90;;;;;;5077714;28;20027;-39
2022/04/15 03:30:06;;;;;;;8.23;4.25;;;10.40;99.90;;;;;;5094472;28;20384;-37
2022/04/15 03:32:32;;;;;;;10.45;4.03;;;10.40;99.90;;;;;;5095614;28;20032;-38
2022/04/15 03:34:58;;;;;;;10.90;4.30;;;10.40;99.90;;;;;;5095456;28;20055;-38
2022/04/15 03:37:24;;;;;;;6.53;3.95;;;10.40;99.90;;;;;;5096001;28;20034;-38
2022/04/15 03:39:51;;;;;;;7.03;4.10;;;10.30;99.90;;;;;;5094658;28;20028;-36
2022/04/15 03:42:17;;;;;;;11.30;3.50;;;10.40;99.90;;;;;;5096079;28;20383;-39
2022/04/15 03:44:43;;;;;;;8.60;3.38;;;10.30;99.90;;;;;;5094110;28;20028;-39
2022/04/15 03:47:08;;;;;;;12.05;3.60;;;10.40;99.90;;;;;;5094943;28;20028;-39
2022/04/15 03:49:34;;;;;;;10.20;4.20;;;10.40;99.90;;;;;;5095841;28;20023;-37
2022/04/15 03:52:00;;;;;;;9.45;3.25;;;10.40;99.90;;;;;;5095715;28;20020;-39
2022/04/15 03:54:26;;;;;;;6.07;3.53;;;10.30;99.90;;;;;;5093044;28;20495;-38
2022/04/15 03:56:52;;;;;;;12.05;3.75;;;10.20;99.90;;;;;;5095638;28;20024;-37
2022/04/15 03:59:18;;;;;;;8.57;3.00;;;10.20;99.90;;;;;;5095614;28;20024;-37
2022/04/15 04:01:44;;;;;;;4.10;2.70;;;10.20;99.90;;;;;;5095426;28;20020;-38
2022/04/15 04:04:09;;;;;;;3.90;2.58;;;10.20;99.90;;;;;;5091509;28;20039;-39
2022/04/15 04:06:35;;;;;;;7.97;2.83;;;10.20;99.90;;;;;;5092528;28;20450;-38
2022/04/15 04:09:01;;;;;;;3.47;2.80;;;10.20;99.90;;;;;;5094659;28;20028;-38
2022/04/15 04:11:26;;;;;;;7.88;3.10;;;10.10;99.90;;;;;;5093100;28;20484;-39
2022/04/15 04:13:52;;;;;;;7.85;3.30;;;10.10;99.90;;;;;;5093242;28;20372;-39
2022/04/15 04:16:18;;;;;;;5.13;2.97;;;10.00;99.90;;;;;;5095330;28;20111;-39
2022/04/15 04:18:44;;;;;;;5.97;3.20;;;10.00;99.90;;;;;;5093968;28;20020;-38
2022/04/15 04:21:10;;;;;;;6.80;3.03;;;10.10;99.90;;;;;;5092800;28;20024;-39
2022/04/15 04:23:37;;;;;;;6.03;2.83;;;10.10;99.90;;;;;;5095188;28;20532;-39
2022/04/15 04:26:05;;;;;;;5.70;2.75;;;10.00;99.90;;;;;;5094949;28;20071;-37
2022/04/15 04:28:32;;;;;;;8.50;2.78;;;10.00;99.90;;;;;;5094785;28;20028;-38
2022/04/15 04:30:58;;;;;;;3.43;2.97;;;9.90;99.90;;;;;;5093094;28;20442;-38
2022/04/15 04:33:23;;;;;;;2.92;2.42;;;9.90;99.90;;;;;;5095026;28;20070;-38
2022/04/15 04:35:50;;;;;;;8.10;2.50;;;9.80;99.90;;;;;;5094977;28;20085;-38
2022/04/15 04:38:16;;;;;;;8.90;3.25;;;9.80;99.90;;;;;;5094007;28;20514;-38
2022/04/15 04:40:42;;;;;;;7.68;3.05;;;9.80;99.90;;;;;;5092894;28;20032;-37
2022/04/15 04:43:27;;;;;;;3.72;2.78;;;9.80;99.90;;;;;;5094796;28;20020;-38
2022/04/15 04:45:53;;;;;;;4.55;2.80;;;9.80;99.90;;;;;;5093957;28;20039;-38
2022/04/15 04:48:18;;;;;;;6.25;2.80;;;9.80;99.90;;;;;;5094700;28;20095;-38
2022/04/15 04:50:46;;;;;;;5.03;2.40;;;9.80;99.90;;;;;;5092117;28;20020;-38
2022/04/15 04:53:11;;;;;;;7.60;2.78;;;9.80;99.90;;;;;;5094356;28;20115;-38
2022/04/15 04:55:38;;;;;;;4.18;2.78;;;9.80;99.90;;;;;;5093554;28;20540;-38
2022/04/15 04:58:04;;;;;;;5.95;2.72;;;9.80;99.90;;;;;;5094170;28;20085;-39
2022/04/15 05:00:29;;;;;;;10.13;3.03;;;9.80;99.90;;;;;;5091435;28;20024;-38
2022/04/15 05:02:55;;;;;;;3.55;2.40;;;9.80;99.90;;;;;;5092346;28;20072;-38
2022/04/15 05:05:20;;;;;;;10.10;2.78;;;9.80;99.90;;;;;;5090370;28;20025;-37
2022/04/15 05:07:46;;;;;;;7.40;2.97;;;9.90;99.90;;;;;;5072125;28;20140;-39
2022/04/15 05:10:12;;;;;;;5.68;3.17;;;9.80;99.90;;;;;;5079928;28;20365;-38
2022/04/15 05:12:37;;;;;;;4.47;2.42;;;9.90;99.90;;;;;;5091823;28;20036;-37
2022/04/15 05:15:03;;;;;;;5.88;3.08;;;9.80;99.90;;;;;;5092928;28;20055;-38
2022/04/15 05:17:29;;;;;;;4.78;2.25;;;9.90;99.90;;;;;;5093266;28;20468;-38
2022/04/15 05:19:54;;;;;;;16.48;3.50;;;10.00;99.90;;;;;;5094097;28;20028;-39
2022/04/15 05:22:22;;;;;;;6.80;2.90;;;10.00;99.90;;;;;;5093612;28;20028;-37
2022/04/15 05:24:48;;;;;;;3.75;2.70;;;10.10;99.90;;;;;;5092328;28;20024;-37
2022/04/15 05:27:14;;;;;;;12.77;2.60;;;10.10;99.90;;;;;;5093124;28;20123;-39
2022/04/15 05:29:39;;;;;;;4.55;2.70;;;10.10;99.90;;;;;;5093860;28;20078;-42
2022/04/15 05:32:05;;;;;;;4.63;3.33;;;10.10;99.90;;;;;;5091796;28;20031;-38
2022/04/15 05:34:30;;;;;;;4.35;2.72;;;10.20;99.90;;;;;;5092663;28;20027;-39
2022/04/15 05:36:56;;;;;;;3.83;2.58;;;10.20;99.90;;;;;;5093168;28;20028;-38
2022/04/15 05:39:22;;;;;;;8.85;2.80;;;10.30;99.90;;;;;;5093548;28;20088;-39
2022/04/15 05:41:47;;;;;;;5.75;2.40;;;10.20;99.90;;;;;;5093525;28;20024;-32
2022/04/15 05:44:14;;;;;;;3.60;2.33;;;10.20;99.90;;;;;;5089944;28;20016;-38
2022/04/15 05:46:42;;;;;;;7.20;2.97;;;10.30;99.90;;;;;;5077653;28;20012;-39
2022/04/15 05:49:13;;;;;;;8.45;2.08;;;10.30;99.90;;;;;;5091314;28;20124;-37
2022/04/15 05:51:39;;;;;;;3.67;1.92;;;10.30;99.90;;;;;;5091524;28;20173;-36
2022/04/15 05:54:05;;;;;;;9.90;2.03;;;10.30;99.90;;;;;;5091226;28;20030;-38
2022/04/15 05:56:30;;;;;;;2.47;1.70;;;10.30;99.90;;;;;;5091945;28;20115;-37
2022/04/15 05:58:56;;;;;;;3.17;1.73;;;10.30;99.90;;;;;;5092037;28;20073;-37
2022/04/15 06:01:22;;;;;;;2.28;1.70;;;10.30;99.90;;;;;;5090387;28;20115;-37
2022/04/15 06:03:48;;;;;;;1.92;1.77;;;10.20;99.90;;;;;;5088951;28;20031;-36
2022/04/15 06:06:14;;;;;;;2.70;1.90;;;10.20;99.90;;;;;;5090466;28;20558;-38
2022/04/15 06:08:39;;;;;;;5.38;1.40;;;10.30;99.90;;;;;;5091679;28;20016;-39
2022/04/15 06:11:05;;;;;;;7.55;2.08;;;10.30;99.90;;;;;;5093347;28;20085;-41
2022/04/15 06:13:31;;;;;;;6.68;2.25;;;10.40;99.90;;;;;;5093269;28;20496;-37
2022/04/15 06:15:58;;;;;;;6.93;2.08;;;10.40;99.90;;;;;;5091381;28;20028;-36
2022/04/15 06:18:25;;;;;;;2.78;1.83;;;10.40;99.90;;;;;;5090660;28;20070;-38
2022/04/15 06:20:51;;;;;;;1.73;1.63;;;10.60;99.90;;;;;;5093147;28;20031;-38
2022/04/15 06:23:18;;;;;;;5.82;2.10;;;10.60;99.90;;;;;;5093163;28;20020;-38
2022/04/15 06:25:45;;;;;;;6.45;3.15;;;10.70;99.90;;;;;;5093056;28;20138;-38
2022/04/15 06:28:11;;;;;;;4.47;1.63;;;10.70;99.90;;;;;;5092155;28;20362;-39
2022/04/15 06:30:37;;;;;;;5.40;1.95;;;10.80;99.90;;;;;;5092918;28;20031;-40
2022/04/15 06:33:08;;;;;;;5.88;2.20;;;10.80;99.90;;;;;;5088819;28;20020;-38
2022/04/15 06:35:34;;;;;;;8.85;2.33;;;10.90;99.90;;;;;;5092019;28;20016;-37
2022/04/15 06:38:00;;;;;;;2.92;1.65;;;10.90;99.90;;;;;;5094611;28;20035;-39
2022/04/15 06:40:26;;;;;;;6.28;2.00;;;10.90;99.90;;;;;;5091077;28;20103;-38
2022/04/15 06:42:52;;;;;;;4.03;2.13;;;10.80;99.90;;;;;;5093154;28;20028;-38
2022/04/15 06:45:17;;;;;;;5.28;1.95;;;10.70;99.90;;;;;;5088030;28;20023;-38
2022/04/15 06:47:43;;;;;;;3.38;2.08;;;10.70;99.90;;;;;;5090611;28;20430;-36
2022/04/15 06:50:09;;;;;;;1.70;1.60;;;10.80;99.90;;;;;;5091253;28;20028;-36
2022/04/15 06:52:35;;;;;;;5.57;1.70;;;10.70;99.90;;;;;;5090440;28;20032;-38
2022/04/15 06:55:03;;;;;;;3.58;2.05;;;10.80;99.90;;;;;;5092755;28;20495;-42
2022/04/15 06:57:31;;;;;;;7.13;1.90;;;10.80;99.90;;;;;;5091400;28;20522;-44
2022/04/15 06:59:57;;;;;;;;;;;10.80;99.90;;;;;;5090787;28;20036;-39
2022/04/15 07:02:22;;;;;;;5.18;2.40;;;10.80;99.90;;;;;;5092110;28;19916;-39
2022/04/15 07:04:48;;;;;;;7.20;1.58;;;10.90;99.90;;;;;;5095710;28;20032;-39
2022/04/15 07:07:17;;;;;;;2.03;1.67;;;11.00;99.90;;;;;;5096662;28;20032;-38
2022/04/15 07:09:44;;;;;;;5.28;1.85;;;11.20;99.90;;;;;;5092214;28;20020;-35
2022/04/15 07:12:10;;;;;;;6.30;2.45;;;11.10;99.90;;;;;;5086335;28;20036;-45
2022/04/15 07:14:36;;;;;;;5.18;2.40;;;11.20;99.90;;;;;;5084257;28;20028;-39
2022/04/15 07:17:02;;;;;;;3.22;2.15;;;11.20;99.90;;;;;;5093598;28;20062;-39
2022/04/15 07:19:28;;;;;;;4.95;1.92;;;11.20;99.90;;;;;;5090467;28;20039;-40
2022/04/15 07:21:54;;;;;;;5.15;1.63;;;11.20;99.90;;;;;;5094438;28;20028;-44
2022/04/15 07:24:21;;;;;;;3.53;1.48;;;11.20;99.90;;;;;;5095452;28;20031;-44
2022/04/15 07:26:49;;;;;;;2.63;1.55;;;11.30;99.90;;;;;;5094046;28;20488;-40
2022/04/15 07:29:15;;;;;;;4.72;1.52;;;11.20;99.90;;;;;;5091691;28;20024;-38
2022/04/15 07:31:42;;;;;;;5.82;1.83;;;11.20;99.90;;;;;;5088936;28;20028;-39
2022/04/15 07:34:07;;;;;;;4.70;1.70;;;11.30;99.90;;;;;;5093194;28;20043;-37
2022/04/15 07:39:09;;;;;;;1.63;1.35;;;11.80;99.90;;;;;;5089214;28;20070;-38
2022/04/15 07:41:36;;;;;;;1.73;1.63;;;12.10;99.90;;;;;;5091583;28;20044;-40
2022/04/15 07:44:06;;;;;;;2.22;2.00;;;12.00;99.90;;;;;;5094989;28;20154;-39
2022/04/15 07:46:33;;;;;;;6.13;1.75;;;12.00;99.90;;;;;;5093555;28;20024;-43
2022/04/15 07:49:01;;;;;;;4.20;1.80;;;12.00;99.90;;;;;;5091949;28;20542;-37
2022/04/15 07:51:27;;;;;;;;;;;12.00;99.90;;;;;;5094751;28;20554;-37
2022/04/15 07:53:53;;;;;;;2.95;1.75;;;12.10;99.90;;;;;;5089411;28;20001;-38
2022/04/15 07:56:19;;;;;;;2.05;1.60;;;12.00;99.90;;;;;;5091045;28;20387;-37
2022/04/15 07:58:44;;;;;;;1.77;1.63;;;12.10;99.90;;;;;;5094192;28;20024;-38
2022/04/15 08:01:10;;;;;;;1.70;1.17;;;12.10;99.90;;;;;;5091634;28;20426;-36
2022/04/15 08:03:36;;;;;;;2.95;1.27;;;12.10;99.90;;;;;;5094993;28;20054;-37
2022/04/15 08:06:03;;;;;;;2.25;1.52;;;12.10;99.90;;;;;;5092900;28;20013;-37
2022/04/15 08:08:29;;;;;;;3.95;1.45;;;12.10;99.90;;;;;;5091427;28;20016;-37
2022/04/15 08:10:55;;;;;;;4.82;1.60;;;12.10;99.90;;;;;;5092560;28;20032;-37
2022/04/15 08:13:21;;;;;;;3.22;1.45;;;12.20;99.90;;;;;;5089780;28;20036;-37
2022/04/15 08:15:50;;;;;;;2.17;1.48;;;12.30;99.90;;;;;;5089153;28;20027;-36
2022/04/15 08:18:16;;;;;;;3.42;1.67;;;12.20;99.90;;;;;;5092043;28;20471;-38
2022/04/15 08:20:42;;;;;;;2.70;1.70;;;12.30;99.90;;;;;;5091446;28;20487;-38
2022/04/15 08:23:09;;;;;;;1.83;1.25;;;12.60;99.90;;;;;;5091400;28;20024;-37
2022/04/15 08:25:36;;;;;;;4.38;1.27;;;12.80;99.90;;;;;;5093633;28;20048;-38
2022/04/15 08:28:03;;;;;;;1.40;1.30;;;12.90;99.90;;;;;;5091177;28;20573;-39
2022/04/15 08:30:30;;;;;;;2.38;1.30;;;12.80;99.90;;;;;;5094571;28;20503;-38
2022/04/15 08:32:57;;;;;;;2.55;1.25;;;12.80;99.90;;;;;;5094734;28;20477;-38
2022/04/15 08:35:23;;;;;;;6.47;1.60;;;13.00;99.90;;;;;;5092590;28;20020;-37
2022/04/15 08:37:49;;;;;;;3.17;1.30;;;13.30;99.90;;;;;;5094286;28;20031;-38
2022/04/15 08:40:15;;;;;;;2.33;1.10;;;13.50;99.90;;;;;;5094367;28;20024;-37
2022/04/15 08:42:42;;;;;;;1.10;1.10;;;13.50;99.90;;;;;;5094591;28;20165;-37
2022/04/15 08:45:08;;;;;;;2.75;1.55;;;13.60;99.90;;;;;;5093000;28;20024;-38
2022/04/15 08:47:40;;;;;;;1.08;1.08;;;13.90;99.90;;;;;;5093104;28;20048;-39
2022/04/15 08:50:10;;;;;;;5.35;0.95;;;13.90;99.90;;;;;;5083214;28;20024;-36
2022/04/15 08:52:36;;;;;;;5.68;1.02;;;13.90;99.90;;;;;;5094896;28;20059;-39
2022/04/15 08:55:03;;;;;;;4.47;1.10;;;14.10;99.90;;;;;;5094765;28;20024;-39
2022/04/15 08:57:29;;;;;;;0.65;0.65;;;14.10;99.90;;;;;;5092533;28;20067;-35
2022/04/15 08:59:55;;;;;;;1.90;1.20;;;14.20;99.90;;;;;;5095984;28;20526;-39
2022/04/15 09:02:33;;;;;;;2.75;0.88;;;13.90;99.90;;;;;;5094509;28;20032;-37
2022/04/15 09:05:06;;;;;;;1.58;1.08;;;14.00;99.90;;;;;;5094400;28;20051;-38
2022/04/15 09:07:33;;;;;;;4.72;1.98;;;13.90;99.90;;;;;;5076622;28;20048;-37
2022/04/15 09:10:01;;;;;;;2.58;1.25;;;13.80;99.90;;;;;;5094331;28;20519;-37
2022/04/15 09:12:29;;;;;;;1.83;1.40;;;14.00;99.90;;;;;;5094505;28;20488;-39
2022/04/15 09:15:15;;;;;;;10.75;2.13;;;14.00;99.90;;;;;;5094435;28;20498;-38
2022/04/15 09:17:52;;;;;;;4.93;1.45;;;14.00;99.90;;;;;;5094058;28;20054;-38
2022/04/15 09:20:19;;;;;;;1.83;1.60;;;14.30;99.90;;;;;;5092749;28;20438;-36
2022/04/15 09:22:46;;;;;;;2.10;1.03;;;14.50;99.90;;;;;;5093014;28;20075;-37
2022/04/15 09:25:13;;;;;;;3.60;1.20;;;14.80;99.90;;;;;;5093363;28;20113;-38
2022/04/15 09:27:39;;;;;;;3.97;1.58;;;15.10;99.90;;;;;;5092598;28;20519;-39
2022/04/15 09:30:06;;;;;;;2.85;1.40;;;15.20;99.90;;;;;;5092802;28;20016;-39
2022/04/15 09:32:32;;;;;;;4.72;1.35;;;14.90;99.90;;;;;;5092257;28;20036;-38
2022/04/15 09:35:05;;;;;;;4.78;1.58;;;14.90;99.90;;;;;;5093164;28;20111;-39
2022/04/15 09:37:39;;;;;;;1.40;1.30;;;15.10;99.90;;;;;;5077463;28;20024;-39
2022/04/15 09:40:25;;;;;;;3.08;1.25;;;15.20;99.90;;;;;;5091272;28;20429;-46
2022/04/15 09:42:57;;;;;;;2.90;1.10;;;14.80;99.90;;;;;;5088261;28;20468;-38
2022/04/15 09:45:24;;;;;;;1.98;1.10;;;14.90;99.90;;;;;;5091300;28;20514;-38
2022/04/15 09:47:59;;;;;;;7.05;1.15;;;15.00;99.90;;;;;;5093225;28;20369;-42
2022/04/15 09:50:34;;;;;;;3.42;1.45;;;14.50;99.90;;;;;;5086107;28;20380;-42
2022/04/15 09:53:13;;;;;;;3.65;1.10;;;14.50;99.90;;;;;;5089935;28;20475;-33
2022/04/15 09:55:47;;;;;;;2.15;1.30;;;14.50;99.90;;;;;;5090049;28;20475;-37
2022/04/15 09:58:14;;;;;;;1.10;1.00;;;14.30;99.90;;;;;;5093781;28;20428;-38
2022/04/15 10:00:41;;;;;;;2.22;1.70;;;14.30;99.90;;;;;;5093379;28;20063;-40
2022/04/15 10:03:15;;;;;;;0.98;0.90;;;14.40;99.90;;;;;;5093332;28;20384;-36
2022/04/15 10:05:42;;;;;;;1.20;1.10;;;14.40;99.90;;;;;;5093449;28;20028;-38
2022/04/15 10:08:09;;;;;;;4.80;1.23;;;14.40;99.90;;;;;;5093244;28;20028;-38
2022/04/15 10:10:36;;;;;;;2.95;0.82;;;14.40;99.90;;;;;;5098702;28;20023;-37
2022/04/15 10:13:06;;;;;;;1.05;0.95;;;15.10;99.90;;;;;;5098897;28;20055;-37
2022/04/15 10:15:38;;;;;;;1.27;0.80;;;15.50;99.90;;;;;;5093264;28;20036;-38
2022/04/15 10:18:04;;;;;;;1.55;1.10;;;15.70;99.90;;;;;;5093545;28;20035;-38
2022/04/15 10:20:31;;;;;;;3.47;0.98;;;15.80;99.90;;;;;;5091987;28;20051;-38
2022/04/15 10:23:05;;;;;;;0.90;0.83;;;15.90;99.90;;;;;;5093185;28;20114;-39
2022/04/15 10:25:31;;;;;;;1.65;1.02;;;15.70;99.90;;;;;;5092429;28;20024;-39
2022/04/15 10:28:04;;;;;;;3.75;1.35;;;15.50;99.90;;;;;;5105331;28;20044;-37
2022/04/15 10:30:30;;;;;;;1.55;0.95;;;15.20;99.90;;;;;;5094281;28;20028;-37
2022/04/15 10:32:59;;;;;;;1.55;1.02;;;15.00;99.90;;;;;;5096617;28;20035;-37
2022/04/15 10:35:34;;;;;;;5.20;1.40;;;14.80;99.90;;;;;;5096118;28;20109;-38
2022/04/15 10:38:12;;;;;;;4.28;1.08;;;15.00;99.90;;;;;;5096884;28;20464;-37
2022/04/15 10:40:43;;;;;;;1.95;1.10;;;15.70;99.90;;;;;;5095116;28;20119;-38
2022/04/15 10:43:21;;;;;;;1.25;1.05;;;16.10;99.90;;;;;;5091134;28;20071;-37
2022/04/15 10:45:47;;;;;;;4.80;1.30;;;16.30;99.90;;;;;;5095293;28;20027;-37
2022/04/15 10:48:13;;;;;;;1.65;1.27;;;16.50;99.90;;;;;;5095749;28;20042;-37
2022/04/15 10:50:40;;;;;;;2.25;1.13;;;16.60;99.90;;;;;;5095120;28;20472;-38
2022/04/15 10:53:23;;;;;;;1.30;1.20;;;16.80;99.90;;;;;;5095003;28;20020;-37
2022/04/15 10:55:49;;;;;;;2.50;1.15;;;16.60;99.90;;;;;;5094303;28;20476;-38
2022/04/15 10:58:16;;;;;;;1.80;1.00;;;16.30;99.90;;;;;;5095176;28;20027;-38
2022/04/15 11:03:29;;;;;;;3.60;1.52;;;16.00;99.90;;;;;;5088107;28;20039;-39
2022/04/15 11:06:03;;;;;;;2.05;1.27;;;15.50;99.90;;;;;;5096130;28;20024;-37
2022/04/15 11:08:43;;;;;;;1.67;1.30;;;15.30;99.90;;;;;;5096371;28;20020;-39
2022/04/15 11:11:09;;;;;;;2.97;1.45;;;15.20;99.90;;;;;;5095231;28;20204;-37
2022/04/15 11:13:40;;;;;;;1.25;1.15;;;15.30;99.90;;;;;;5096195;28;20066;-39
2022/04/15 11:16:13;;;;;;;2.33;1.05;;;15.70;99.90;;;;;;5095654;28;20059;-39
2022/04/15 11:19:08;;;;;;;3.30;1.40;;;15.70;99.90;;;;;;5095839;28;20388;-38
2022/04/15 11:21:39;;;;;;;3.20;1.50;;;15.50;99.90;;;;;;5067230;28;20032;-45
2022/04/15 11:24:12;;;;;;;2.58;1.25;;;15.50;99.90;;;;;;5094902;28;20024;-38
2022/04/15 11:26:42;;;;;;;4.78;1.52;;;15.60;99.90;;;;;;5095790;28;20550;-51
2022/04/15 11:29:12;;;;;;;2.78;1.30;;;15.70;99.90;;;;;;5094508;28;20103;-38
2022/04/15 11:31:39;;;;;;;2.15;1.95;;;15.70;99.90;;;;;;5086410;28;20024;-38
2022/04/15 11:34:10;;;;;;;5.32;1.50;;;15.60;99.90;;;;;;5086861;28;20028;-36
2022/04/15 11:36:38;;;;;;;6.93;2.22;;;15.60;99.90;;;;;;5089471;28;20032;-37
2022/04/15 11:39:06;;;;;;;2.33;1.50;;;16.00;99.90;;;;;;5094702;28;20035;-38
2022/04/15 11:41:33;;;;;;;2.13;1.27;;;16.10;99.90;;;;;;5094349;28;20494;-38
2022/04/15 11:44:06;;;;;;;3.10;1.60;;;16.00;99.90;;;;;;5093770;28;20380;-37
2022/04/15 11:46:47;;;;;;;3.42;1.80;;;16.00;99.90;;;;;;5095578;28;20035;-43
2022/04/15 11:49:28;;;;;;;1.55;1.45;;;15.90;99.90;;;;;;5095043;28;20035;-38
2022/04/15 11:51:58;;;;;;;5.65;1.80;;;15.70;99.90;;;;;;5094913;28;20036;-35
2022/04/15 11:54:31;;;;;;;6.72;1.90;;;15.50;99.90;;;;;;5093768;28;20032;-38
2022/04/15 11:57:05;;;;;;;4.90;1.65;;;15.20;99.90;;;;;;5097400;28;20043;-39
2022/04/15 11:59:41;;;;;;;2.05;1.73;;;15.30;99.90;;;;;;5112442;28;20039;-39
2022/04/15 12:02:09;;;;;;;5.20;2.28;;;15.20;99.90;;;;;;5095460;28;20458;-37
2022/04/15 12:04:35;;;;;;;2.83;2.13;;;15.30;99.90;;;;;;5094218;28;20031;-39
2022/04/15 12:07:00;;;;;;;4.25;1.73;;;15.40;99.90;;;;;;5095660;28;20020;-37
2022/04/15 12:09:27;;;;;;;2.70;2.35;;;15.40;99.90;;;;;;5095685;28;20047;-38
2022/04/15 12:11:53;;;;;;;6.15;2.83;;;15.50;99.90;;;;;;5095366;28;20036;-38
2022/04/15 12:14:19;;;;;;;4.28;2.20;;;15.50;99.90;;;;;;5095334;28;20034;-37
2022/04/15 12:16:47;;;;;;;4.20;2.28;;;15.50;99.90;;;;;;5095303;28;20115;-38
2022/04/15 12:19:13;;;;;;;2.33;2.13;;;15.50;99.90;;;;;;5095210;28;20484;-37
2022/04/15 12:21:39;;;;;;;9.52;2.78;;;15.90;99.90;;;;;;5095036;28;20032;-37
2022/04/15 12:24:10;;;;;;;2.95;2.17;;;16.00;99.90;;;;;;5093717;28;20035;-37
2022/04/15 12:26:43;;;;;;;5.88;3.28;;;15.90;99.90;;;;;;5092497;28;20134;-38
2022/04/15 12:31:53;;;;;;;7.13;5.85;;;15.50;99.90;;;;;;5093227;28;20047;-37
2022/04/15 12:34:31;;;;;;;3.88;2.30;;;15.60;99.90;;;;;;5094422;28;20020;-36
2022/04/15 12:36:57;;;;;;;3.25;2.50;;;15.50;99.90;;;;;;5109915;28;20028;-37
2022/04/15 12:39:23;;;;;;;3.13;2.83;;;15.50;99.90;;;;;;5093560;28;20051;-37
2022/04/15 12:41:49;;;;;;;4.30;2.40;;;15.40;99.90;;;;;;5093956;28;20437;-37
2022/04/15 12:44:27;;;;;;;4.40;2.97;;;15.30;99.90;;;;;;5093307;28;20472;-38
2022/04/15 12:46:58;;;;;;;6.40;3.28;;;15.30;99.90;;;;;;5083135;28;20492;-38
2022/04/15 12:49:33;;;;;;;5.20;3.05;;;15.30;99.90;;;;;;5092955;28;20050;-37
2022/04/15 12:52:11;;;;;;;4.03;2.60;;;15.20;99.90;;;;;;5093494;28;20034;-38
2022/04/15 12:54:55;;;;;;;;;;;15.40;99.90;;;;;;5091686;28;20472;-41
2022/04/15 12:57:21;;;;;;;2.85;2.40;;;15.50;99.90;;;;;;5092404;28;19958;-37